Gibsonton, Florida
Current Conditions -  °F | °C
As of 12:58 PM on Thursday 27 Nov 2014 (Local Time) from KMCF Reporting Station
Clear Clear  
Wind Chill: 71°   Ceiling: Unl
Heat Index: 71°   Visibility: 10mi
Dew Point: 56°   Wind: 12mph
Humidity: 58%   Direction: 350°N
Pressure: 30.23"   Gusts: 18mph
Location:  27.85°N, 82.38°W
Report Text: KMCF 271758Z AUTO 35010G16KT 10SM CLR 22/13 A3023 RMK AO2 SLP240 T02170132 10226 20072 57026
Loading
Personal Weather Stations






























Interactive Weather Map New forecast layout! Learn more

10-Day Weather Forecast

Advertisements
Track Severe Weather on mobile